createdAt,value
2018-02-08T00:00:10.825Z,38.80
2018-02-08T00:01:10.981Z,37.70
2018-02-08T00:02:10.809Z,37.10
2018-02-08T00:03:10.465Z,39.90
2018-02-08T00:04:10.464Z,40.30
2018-02-08T00:05:10.350Z,39.80
2018-02-08T00:06:10.340Z,37.50
2018-02-08T00:07:11.262Z,37.70
2018-02-08T00:08:10.330Z,36.30
2018-02-08T00:09:10.333Z,36.80
2018-02-08T00:10:10.301Z,40.00
2018-02-08T00:11:10.310Z,36.90
2018-02-08T00:12:10.289Z,40.60
2018-02-08T00:13:10.278Z,39.60
2018-02-08T00:14:10.355Z,38.30
2018-02-08T00:15:10.332Z,41.10
2018-02-08T00:16:10.332Z,42.20
2018-02-08T00:17:10.265Z,40.30
2018-02-08T00:18:10.276Z,38.30
2018-02-08T00:19:10.309Z,39.80
2018-02-08T00:20:10.271Z,40.60
2018-02-08T00:21:10.302Z,39.10
2018-02-08T00:22:10.296Z,39.20
2018-02-08T00:23:10.246Z,37.70
2018-02-08T00:24:10.239Z,39.40
2018-02-08T00:25:10.258Z,39.60
2018-02-08T00:26:10.287Z,38.60
2018-02-08T00:27:10.293Z,38.80
2018-02-08T00:28:10.250Z,40.80
2018-02-08T00:29:10.261Z,40.60
2018-02-08T00:30:10.226Z,38.50
2018-02-08T00:31:10.247Z,39.60
2018-02-08T00:32:10.245Z,41.60
2018-02-08T00:33:10.193Z,41.90
2018-02-08T00:34:10.184Z,39.90
2018-02-08T00:35:10.184Z,38.20
2018-02-08T00:36:10.197Z,40.50
2018-02-08T00:37:10.196Z,38.10
2018-02-08T00:38:10.200Z,39.40
2018-02-08T00:39:10.212Z,38.10
2018-02-08T00:40:10.157Z,39.70
2018-02-08T00:41:10.207Z,42.10
2018-02-08T00:42:10.219Z,39.60
2018-02-08T00:43:10.165Z,40.80
2018-02-08T00:44:10.141Z,38.40
2018-02-08T00:45:10.167Z,38.90
2018-02-08T00:46:10.170Z,39.00
2018-02-08T00:47:10.136Z,37.90
2018-02-08T00:48:10.127Z,39.70
2018-02-08T00:49:10.171Z,38.80
2018-02-08T00:50:10.121Z,38.20
2018-02-08T00:51:10.107Z,37.40
2018-02-08T00:52:10.167Z,43.20
2018-02-08T00:53:10.134Z,41.80
2018-02-08T00:54:10.166Z,41.70
2018-02-08T00:55:10.170Z,41.40
2018-02-08T00:56:10.106Z,39.80
2018-02-08T00:57:10.151Z,40.50
2018-02-08T00:58:10.122Z,40.10
2018-02-08T00:59:10.137Z,40.20
2018-02-08T01:00:10.097Z,39.20
2018-02-08T01:01:10.977Z,41.60
2018-02-08T01:02:10.058Z,39.80
2018-02-08T01:03:10.066Z,40.00
2018-02-08T01:04:10.060Z,46.40
2018-02-08T01:05:10.071Z,40.80
2018-02-08T01:06:10.095Z,43.90
2018-02-08T01:07:10.039Z,41.80
2018-02-08T01:08:10.055Z,38.70
2018-02-08T01:09:10.029Z,41.10
2018-02-08T01:10:10.034Z,37.80
2018-02-08T01:11:10.094Z,43.30
2018-02-08T01:12:10.070Z,39.90
2018-02-08T01:13:10.039Z,37.40
2018-02-08T01:14:10.478Z,40.50
2018-02-08T01:15:10.067Z,39.40
2018-02-08T01:16:10.049Z,39.50
2018-02-08T01:17:10.008Z,41.00
2018-02-08T01:18:10.010Z,39.90
2018-02-08T01:19:10.039Z,42.00
2018-02-08T01:20:09.999Z,42.90
2018-02-08T01:21:09.976Z,41.80
2018-02-08T01:22:09.997Z,45.00
2018-02-08T01:23:09.994Z,40.60
2018-02-08T01:24:10.021Z,40.20
2018-02-08T01:25:10.006Z,41.10
2018-02-08T01:26:09.992Z,43.10
2018-02-08T01:27:09.978Z,41.70
2018-02-08T01:28:10.012Z,41.80
2018-02-08T01:29:09.940Z,41.40
2018-02-08T01:30:09.953Z,43.50
2018-02-08T01:31:09.999Z,44.50
2018-02-08T01:32:09.958Z,43.50
2018-02-08T01:33:09.977Z,43.20
2018-02-08T01:34:09.916Z,44.80
2018-02-08T01:35:10.005Z,42.20
2018-02-08T01:36:09.916Z,43.60
2018-02-08T01:37:09.909Z,42.40
2018-02-08T01:38:09.951Z,42.60
2018-02-08T01:39:09.910Z,41.70
2018-02-08T01:40:09.891Z,46.40
2018-02-08T01:41:09.913Z,41.60
2018-02-08T01:42:09.895Z,43.80
2018-02-08T01:43:09.887Z,43.40
2018-02-08T01:44:09.918Z,41.30
2018-02-08T01:45:09.861Z,42.30
2018-02-08T01:46:09.905Z,41.00
2018-02-08T01:47:09.885Z,43.60
2018-02-08T01:48:10.485Z,45.00
2018-02-08T01:49:09.866Z,42.20
2018-02-08T01:50:09.880Z,41.60
2018-02-08T01:51:09.871Z,41.70
2018-02-08T01:52:09.880Z,45.40
2018-02-08T01:53:09.864Z,42.60
2018-02-08T01:54:09.825Z,45.10
2018-02-08T01:55:09.897Z,40.70
2018-02-08T01:56:09.816Z,42.10
2018-02-08T01:57:09.811Z,40.50
2018-02-08T01:58:09.805Z,42.40
2018-02-08T01:59:09.852Z,41.70
2018-02-08T02:00:09.823Z,42.30
2018-02-08T02:01:09.925Z,41.50
2018-02-08T02:02:09.785Z,42.50
2018-02-08T02:03:09.796Z,40.70
2018-02-08T02:04:09.777Z,44.10
2018-02-08T02:05:09.774Z,41.50
2018-02-08T02:06:09.811Z,46.80
2018-02-08T02:07:09.814Z,42.20
2018-02-08T02:08:09.853Z,39.90
2018-02-08T02:09:09.778Z,41.90
2018-02-08T02:10:09.752Z,42.50
2018-02-08T02:11:09.755Z,41.20
2018-02-08T02:12:09.789Z,46.30
2018-02-08T02:13:09.764Z,40.40
2018-02-08T02:14:09.732Z,40.90
2018-02-08T02:15:09.715Z,48.20
2018-02-08T02:16:09.720Z,44.40
2018-02-08T02:17:09.720Z,41.40
2018-02-08T02:18:09.781Z,43.60
2018-02-08T02:19:09.722Z,40.80
2018-02-08T02:20:09.739Z,43.10
2018-02-08T02:21:09.700Z,41.10
2018-02-08T02:22:09.714Z,42.00
2018-02-08T02:23:09.691Z,44.70
2018-02-08T02:24:09.759Z,43.00
2018-02-08T02:25:09.723Z,40.90
2018-02-08T02:26:09.678Z,40.30
2018-02-08T02:27:09.690Z,43.80
2018-02-08T02:28:09.687Z,39.10
2018-02-08T02:29:09.663Z,39.80
2018-02-08T02:30:09.712Z,41.10
2018-02-08T02:31:09.712Z,42.30
2018-02-08T02:32:09.642Z,40.40
2018-02-08T02:33:09.693Z,39.00
2018-02-08T02:34:09.680Z,39.70
2018-02-08T02:35:09.654Z,40.00
2018-02-08T02:36:09.675Z,39.80
2018-02-08T02:37:09.638Z,40.40
2018-02-08T02:38:09.627Z,41.30
2018-02-08T02:39:09.616Z,43.80
2018-02-08T02:40:09.598Z,41.70
2018-02-08T02:41:09.616Z,38.30
2018-02-08T02:42:09.659Z,42.20
2018-02-08T02:43:09.610Z,40.10
2018-02-08T02:44:09.657Z,42.40
2018-02-08T02:45:09.643Z,43.30
2018-02-08T02:46:09.576Z,39.50
2018-02-08T02:47:09.636Z,42.70
2018-02-08T02:48:09.570Z,45.50
2018-02-08T02:49:09.561Z,42.50
2018-02-08T02:50:09.575Z,42.40
2018-02-08T02:51:09.577Z,42.00
2018-02-08T02:52:09.559Z,42.00
2018-02-08T02:53:09.549Z,43.10
2018-02-08T02:54:09.574Z,39.80
2018-02-08T02:55:09.562Z,45.50
2018-02-08T02:56:09.595Z,40.50
2018-02-08T02:57:09.541Z,41.30
2018-02-08T02:58:09.557Z,45.00
2018-02-08T02:59:09.562Z,45.10
2018-02-08T03:00:09.561Z,42.00
2018-02-08T03:01:09.554Z,41.50
2018-02-08T03:02:09.517Z,42.80
2018-02-08T03:03:09.507Z,45.30
2018-02-08T03:04:09.551Z,42.80
2018-02-08T03:05:09.494Z,44.40
2018-02-08T03:06:09.506Z,43.40
2018-02-08T03:07:09.499Z,42.60
2018-02-08T03:08:09.488Z,46.80
2018-02-08T03:09:09.474Z,45.20
2018-02-08T03:10:09.492Z,45.40
2018-02-08T03:11:09.513Z,46.20
2018-02-08T03:12:09.488Z,42.70
2018-02-08T03:13:09.488Z,45.20
2018-02-08T03:14:09.445Z,46.60
2018-02-08T03:15:09.472Z,44.00
2018-02-08T03:16:09.440Z,44.80
2018-02-08T03:17:09.504Z,43.40
2018-02-08T03:18:09.425Z,42.90
2018-02-08T03:19:09.458Z,42.20
2018-02-08T03:20:09.413Z,43.30
2018-02-08T03:21:09.426Z,44.70
2018-02-08T03:22:09.991Z,44.20
2018-02-08T03:23:09.422Z,42.10
2018-02-08T03:24:09.445Z,39.80
2018-02-08T03:25:09.403Z,43.20
2018-02-08T03:26:09.427Z,41.00
2018-02-08T03:27:09.381Z,41.20
2018-02-08T03:28:09.400Z,42.40
2018-02-08T03:29:09.396Z,42.80
2018-02-08T03:30:09.409Z,42.60
2018-02-08T03:31:09.440Z,41.10
2018-02-08T03:32:09.376Z,43.20
2018-02-08T03:33:09.408Z,43.40
2018-02-08T03:34:09.369Z,39.50
2018-02-08T03:35:09.375Z,40.50
2018-02-08T03:36:09.343Z,42.50
2018-02-08T03:37:09.346Z,44.00
2018-02-08T03:38:09.354Z,44.30
2018-02-08T03:39:09.384Z,44.30
2018-02-08T03:40:09.312Z,44.80
2018-02-08T03:41:09.315Z,41.50
2018-02-08T03:42:09.333Z,40.10
2018-02-08T03:43:09.355Z,40.80
2018-02-08T03:44:09.316Z,42.20
2018-02-08T03:45:09.300Z,40.60
2018-02-08T03:46:09.334Z,40.20
2018-02-08T03:47:09.281Z,41.30
2018-02-08T03:48:09.294Z,43.20
2018-02-08T03:49:09.316Z,43.90
2018-02-08T03:50:09.275Z,42.10
2018-02-08T03:51:09.292Z,43.30
2018-02-08T03:52:09.301Z,43.10
2018-02-08T03:53:09.273Z,42.10
2018-02-08T03:54:09.260Z,41.20
2018-02-08T03:55:09.244Z,43.90
2018-02-08T03:56:09.269Z,43.90
2018-02-08T03:57:09.301Z,39.10
2018-02-08T03:58:09.239Z,42.40
2018-02-08T03:59:09.257Z,39.90
2018-02-08T04:00:09.241Z,43.20
2018-02-08T04:01:09.259Z,41.50
2018-02-08T04:02:09.227Z,39.90
2018-02-08T04:03:09.249Z,44.60
2018-02-08T04:04:09.262Z,39.80
2018-02-08T04:05:09.222Z,40.40
2018-02-08T04:06:09.189Z,43.80
2018-02-08T04:07:09.230Z,46.30
2018-02-08T04:08:09.206Z,40.70
2018-02-08T04:09:09.215Z,43.30
2018-02-08T04:10:09.198Z,41.80
2018-02-08T04:11:09.163Z,44.50
2018-02-08T04:12:09.296Z,40.20
2018-02-08T04:13:09.187Z,44.20
2018-02-08T04:14:09.223Z,42.40
2018-02-08T04:15:09.247Z,42.20
2018-02-08T04:16:09.145Z,41.50
2018-02-08T04:17:09.139Z,43.50
2018-02-08T04:18:09.169Z,42.30
2018-02-08T04:19:09.138Z,44.30
2018-02-08T04:20:09.119Z,42.50
2018-02-08T04:21:09.112Z,41.40
2018-02-08T04:22:09.152Z,43.30
2018-02-08T04:23:09.137Z,42.10
2018-02-08T04:24:09.164Z,42.10
2018-02-08T04:25:09.161Z,41.50
2018-02-08T04:26:09.097Z,43.50
2018-02-08T04:27:09.117Z,43.40
2018-02-08T04:28:09.096Z,45.00
2018-02-08T04:29:09.087Z,42.60
2018-02-08T04:30:09.144Z,43.50
2018-02-08T04:31:09.097Z,40.70
2018-02-08T04:32:09.059Z,43.10
2018-02-08T04:33:09.123Z,43.30
2018-02-08T04:34:09.093Z,42.60
2018-02-08T04:35:09.056Z,44.10
2018-02-08T04:36:09.037Z,45.20
2018-02-08T04:37:09.108Z,43.60
2018-02-08T04:38:09.074Z,43.10
2018-02-08T04:39:09.066Z,44.20
2018-02-08T04:40:09.055Z,44.50
2018-02-08T04:41:09.985Z,41.80
2018-02-08T04:42:09.026Z,42.70
2018-02-08T04:43:09.067Z,42.00
2018-02-08T04:44:09.042Z,43.50
2018-02-08T04:45:09.026Z,41.10
2018-02-08T04:46:08.997Z,41.20
2018-02-08T04:47:09.059Z,43.00
2018-02-08T04:48:08.985Z,41.10
2018-02-08T04:49:09.047Z,42.90
2018-02-08T04:50:08.976Z,43.60
2018-02-08T04:51:09.009Z,46.10
2018-02-08T04:52:08.973Z,45.10
2018-02-08T04:53:08.984Z,43.00
2018-02-08T04:54:08.972Z,42.90
2018-02-08T04:55:09.000Z,42.40
2018-02-08T04:56:08.965Z,42.90
2018-02-08T04:57:08.944Z,44.50
2018-02-08T04:58:08.956Z,42.30
2018-02-08T04:59:08.979Z,44.60
2018-02-08T05:00:08.970Z,43.10
2018-02-08T05:01:08.917Z,43.80
2018-02-08T05:02:08.955Z,42.20
2018-02-08T05:03:08.906Z,42.10
2018-02-08T05:04:08.913Z,44.50
2018-02-08T05:05:08.982Z,41.80
2018-02-08T05:06:08.973Z,44.90
2018-02-08T05:07:08.913Z,44.20
2018-02-08T05:08:08.905Z,44.80
2018-02-08T05:09:08.887Z,47.40
2018-02-08T05:10:08.896Z,43.80
2018-02-08T05:11:08.909Z,42.20
2018-02-08T05:12:08.883Z,45.50
2018-02-08T05:13:08.885Z,42.50
2018-02-08T05:14:08.908Z,44.10
2018-02-08T05:15:08.989Z,43.90
2018-02-08T05:16:08.874Z,43.90
2018-02-08T05:17:08.885Z,45.10
2018-02-08T05:18:08.844Z,41.30
2018-02-08T05:19:08.893Z,43.60
2018-02-08T05:20:08.859Z,47.10
2018-02-08T05:21:08.813Z,48.00
2018-02-08T05:22:08.828Z,44.20
2018-02-08T05:23:08.842Z,48.20
2018-02-08T05:24:08.832Z,44.60
2018-02-08T05:25:08.818Z,46.00
2018-02-08T05:26:08.878Z,48.10
2018-02-08T05:27:08.838Z,45.90
2018-02-08T05:28:09.489Z,49.40
2018-02-08T05:29:08.853Z,49.70
2018-02-08T05:30:08.791Z,48.70
2018-02-08T05:31:08.769Z,49.20
2018-02-08T05:32:08.766Z,48.20
2018-02-08T05:33:08.835Z,49.50
2018-02-08T05:34:08.834Z,54.20
2018-02-08T05:35:08.748Z,47.00
2018-02-08T05:36:08.802Z,50.20
2018-02-08T05:37:08.799Z,51.60
2018-02-08T05:38:08.738Z,47.80
2018-02-08T05:39:08.783Z,47.60
2018-02-08T05:40:08.787Z,43.40
2018-02-08T05:41:08.797Z,45.30
2018-02-08T05:42:08.765Z,45.00
2018-02-08T05:43:08.710Z,49.70
2018-02-08T05:44:08.764Z,49.50
2018-02-08T05:45:08.701Z,47.70
2018-02-08T05:46:08.700Z,47.20
2018-02-08T05:47:08.681Z,50.60
2018-02-08T05:48:08.723Z,50.50
2018-02-08T05:49:08.725Z,47.60
2018-02-08T05:50:08.679Z,52.20
2018-02-08T05:51:08.670Z,53.30
2018-02-08T05:52:08.698Z,54.20
2018-02-08T05:53:08.714Z,54.80
2018-02-08T05:54:08.660Z,53.90
2018-02-08T05:55:08.693Z,54.60
2018-02-08T05:56:08.662Z,50.30
2018-02-08T05:57:08.661Z,47.70
2018-02-08T05:58:08.652Z,53.50
2018-02-08T05:59:08.621Z,52.50
2018-02-08T06:00:08.657Z,51.00
2018-02-08T06:01:08.621Z,51.30
2018-02-08T06:02:08.800Z,52.80
2018-02-08T06:03:08.632Z,53.80
2018-02-08T06:04:08.644Z,55.70
2018-02-08T06:05:08.643Z,51.40
2018-02-08T06:06:08.620Z,50.30
2018-02-08T06:07:08.626Z,48.90
2018-02-08T06:08:08.603Z,51.80
2018-02-08T06:09:08.626Z,54.00
2018-02-08T06:10:08.664Z,51.40
2018-02-08T06:11:08.566Z,51.40
2018-02-08T06:12:08.602Z,57.60
2018-02-08T06:13:08.574Z,54.80
2018-02-08T06:14:08.573Z,51.90
2018-02-08T06:15:08.545Z,53.10
2018-02-08T06:16:08.541Z,48.80
2018-02-08T06:17:08.585Z,54.70
2018-02-08T06:18:08.583Z,52.20
2018-02-08T06:19:08.518Z,55.80
2018-02-08T06:20:08.549Z,55.60
2018-02-08T06:21:08.530Z,53.50
2018-02-08T06:22:08.564Z,54.50
2018-02-08T06:23:08.534Z,55.70
2018-02-08T06:24:09.941Z,53.80
2018-02-08T06:25:08.509Z,52.60
2018-02-08T06:26:08.480Z,53.60
2018-02-08T06:27:08.537Z,54.20
2018-02-08T06:28:08.475Z,54.30
2018-02-08T06:29:08.520Z,53.20
2018-02-08T06:30:08.500Z,56.70
2018-02-08T06:31:09.485Z,48.20
2018-02-08T06:32:08.532Z,51.60
2018-02-08T06:33:08.524Z,53.90
2018-02-08T06:34:08.463Z,54.30
2018-02-08T06:35:08.484Z,52.80
2018-02-08T06:36:08.471Z,51.50
2018-02-08T06:37:08.442Z,53.00
2018-02-08T06:38:08.466Z,54.00
2018-02-08T06:39:08.436Z,51.70
2018-02-08T06:40:08.453Z,51.20
2018-02-08T06:41:08.437Z,51.20
2018-02-08T06:42:08.467Z,51.90
2018-02-08T06:43:08.398Z,51.90
2018-02-08T06:44:08.391Z,51.10
2018-02-08T06:45:08.402Z,50.50
2018-02-08T06:46:08.407Z,50.90
2018-02-08T06:47:08.412Z,52.70
2018-02-08T06:48:08.389Z,50.90
2018-02-08T06:49:08.408Z,55.40
2018-02-08T06:50:08.393Z,53.40
2018-02-08T06:51:08.366Z,53.00
2018-02-08T06:52:08.436Z,59.20
2018-02-08T06:53:08.352Z,56.30
2018-02-08T06:54:08.363Z,53.80
2018-02-08T06:55:08.381Z,51.00
2018-02-08T06:56:08.344Z,56.10
2018-02-08T06:57:08.340Z,53.30
2018-02-08T06:58:08.348Z,49.20
2018-02-08T06:59:08.356Z,54.30
2018-02-08T07:00:08.309Z,55.80
2018-02-08T07:01:08.368Z,55.50
2018-02-08T07:02:08.308Z,55.80
2018-02-08T07:03:08.289Z,55.60
2018-02-08T07:04:08.299Z,58.50
2018-02-08T07:05:08.368Z,55.40
2018-02-08T07:06:09.702Z,53.60
2018-02-08T07:07:08.343Z,53.80
2018-02-08T07:08:08.313Z,56.90
2018-02-08T07:09:08.437Z,55.60
2018-02-08T07:10:08.264Z,55.30
2018-02-08T07:11:08.259Z,54.60
2018-02-08T07:12:08.302Z,55.80
2018-02-08T07:13:08.288Z,56.80
2018-02-08T07:14:08.256Z,59.40
2018-02-08T07:15:08.270Z,57.00
2018-02-08T07:16:08.272Z,56.00
2018-02-08T07:17:09.263Z,54.70
2018-02-08T07:18:08.516Z,55.40
2018-02-08T07:19:08.317Z,54.60
2018-02-08T07:20:08.200Z,54.40
2018-02-08T07:21:08.250Z,55.30
2018-02-08T07:22:08.301Z,54.20
2018-02-08T07:23:08.213Z,53.30
2018-02-08T07:24:08.215Z,57.70
2018-02-08T07:25:08.249Z,57.00
2018-02-08T07:26:08.196Z,53.00
2018-02-08T07:27:08.232Z,57.80
2018-02-08T07:28:08.173Z,56.40
2018-02-08T07:29:08.205Z,57.60
2018-02-08T07:30:08.230Z,58.80
2018-02-08T07:31:08.239Z,56.10
2018-02-08T07:32:08.177Z,55.20
2018-02-08T07:33:08.192Z,53.40
2018-02-08T07:34:08.138Z,52.20
2018-02-08T07:35:08.128Z,53.20
2018-02-08T07:36:08.128Z,56.00
2018-02-08T07:37:08.119Z,53.00
2018-02-08T07:38:08.116Z,54.50
2018-02-08T07:39:08.221Z,53.60
2018-02-08T07:40:08.163Z,53.60
2018-02-08T07:41:08.144Z,55.30
2018-02-08T07:42:08.089Z,53.40
2018-02-08T07:43:09.080Z,50.50
2018-02-08T07:44:08.084Z,51.00
2018-02-08T07:45:08.086Z,55.00
2018-02-08T07:46:08.134Z,53.90
2018-02-08T07:47:08.119Z,55.10
2018-02-08T07:48:08.104Z,52.80
2018-02-08T07:49:08.998Z,58.30
2018-02-08T07:50:08.066Z,53.50
2018-02-08T07:51:08.063Z,56.20
2018-02-08T07:52:08.113Z,53.10
2018-02-08T07:53:08.152Z,55.10
2018-02-08T07:54:08.054Z,51.40
2018-02-08T07:55:08.071Z,53.90
2018-02-08T07:56:08.062Z,50.40
2018-02-08T07:57:08.079Z,51.70
2018-02-08T07:58:08.076Z,51.80
2018-02-08T07:59:08.086Z,52.80
2018-02-08T08:00:08.063Z,48.90
2018-02-08T08:01:08.077Z,49.90
2018-02-08T08:02:08.091Z,48.70
2018-02-08T08:03:08.494Z,50.90
2018-02-08T08:04:08.001Z,50.50
2018-02-08T08:05:08.011Z,51.30
2018-02-08T08:06:08.022Z,50.20
2018-02-08T08:07:08.053Z,52.70
2018-02-08T08:08:07.993Z,50.30
2018-02-08T08:09:07.985Z,50.80
2018-02-08T08:10:08.038Z,48.30
2018-02-08T08:11:07.970Z,47.50
2018-02-08T08:12:08.051Z,48.30
2018-02-08T08:13:08.030Z,48.80
2018-02-08T08:14:08.082Z,47.70
2018-02-08T08:15:07.977Z,48.80
2018-02-08T08:16:08.070Z,46.70
2018-02-08T08:17:08.106Z,45.10
2018-02-08T08:18:08.270Z,46.40
2018-02-08T08:19:08.112Z,46.50
2018-02-08T08:20:08.195Z,47.70
2018-02-08T08:21:16.284Z,45.30
2018-02-08T08:22:08.041Z,46.30
2018-02-08T08:23:08.004Z,46.20
2018-02-08T08:24:08.057Z,45.80
2018-02-08T08:25:08.022Z,47.10
2018-02-08T08:26:08.077Z,48.20
2018-02-08T08:27:08.284Z,45.90
2018-02-08T08:28:09.378Z,47.30
2018-02-08T08:29:08.184Z,46.70
2018-02-08T08:31:09.850Z,44.80
2018-02-08T08:32:08.312Z,44.70
2018-02-08T08:33:08.348Z,45.90
2018-02-08T08:34:07.990Z,46.60
2018-02-08T08:35:08.098Z,46.70
2018-02-08T08:36:09.123Z,45.70
2018-02-08T08:37:08.082Z,46.20
2018-02-08T08:38:08.169Z,45.50
2018-02-08T08:39:16.061Z,46.50
2018-02-08T08:40:09.460Z,47.40
2018-02-08T08:41:16.768Z,46.20
2018-02-08T08:42:13.485Z,46.10
2018-02-08T08:43:18.900Z,47.90
2018-02-08T08:44:15.829Z,45.80
2018-02-08T08:45:11.398Z,47.90
2018-02-08T08:46:09.835Z,48.60
2018-02-08T08:47:07.977Z,49.50
2018-02-08T08:48:08.015Z,46.80
2018-02-08T08:49:09.411Z,46.80
2018-02-08T08:50:08.443Z,47.50
2018-02-08T08:51:07.936Z,48.50
2018-02-08T08:52:07.956Z,47.00
2018-02-08T08:53:07.985Z,45.90
2018-02-08T08:54:07.924Z,46.20
2018-02-08T08:55:07.933Z,43.00
2018-02-08T08:56:08.071Z,43.90
2018-02-08T08:57:07.979Z,43.60
2018-02-08T08:58:08.200Z,42.60
2018-02-08T08:59:08.243Z,43.50
2018-02-08T09:00:08.053Z,42.50
2018-02-08T09:01:07.953Z,42.80
2018-02-08T09:02:08.277Z,42.10
2018-02-08T09:03:08.742Z,42.80
2018-02-08T09:04:09.020Z,42.80
2018-02-08T09:05:08.635Z,42.50
2018-02-08T09:06:12.028Z,42.20
2018-02-08T09:07:08.213Z,42.90
2018-02-08T09:08:08.864Z,44.40
2018-02-08T09:09:09.235Z,43.20
2018-02-08T09:10:08.463Z,42.90
2018-02-08T09:11:09.072Z,42.10
2018-02-08T09:12:08.186Z,42.40
2018-02-08T09:13:08.022Z,43.00
2018-02-08T09:14:08.014Z,44.70
2018-02-08T09:15:08.006Z,42.80
2018-02-08T09:16:07.947Z,43.30
2018-02-08T09:17:07.980Z,43.30
2018-02-08T09:18:07.930Z,41.80
2018-02-08T09:19:08.015Z,42.60
2018-02-08T09:20:07.963Z,44.20
2018-02-08T09:21:07.996Z,42.20
2018-02-08T09:22:07.915Z,42.70
2018-02-08T09:23:08.009Z,41.70
2018-02-08T09:24:07.952Z,43.10
2018-02-08T09:25:08.132Z,43.90
2018-02-08T09:26:07.936Z,42.50
2018-02-08T09:27:07.932Z,44.10
2018-02-08T09:28:07.928Z,43.20
2018-02-08T09:29:07.960Z,44.40
2018-02-08T09:30:08.774Z,43.20
2018-02-08T09:31:07.951Z,43.00
2018-02-08T09:32:07.920Z,43.60
2018-02-08T09:33:07.891Z,44.70
2018-02-08T09:34:07.955Z,44.20
2018-02-08T09:35:08.510Z,44.90
2018-02-08T09:36:07.898Z,46.00
2018-02-08T09:37:07.884Z,45.00
2018-02-08T09:38:07.932Z,46.00
2018-02-08T09:39:07.891Z,46.20
2018-02-08T09:40:07.918Z,45.40
2018-02-08T09:41:07.902Z,44.20
2018-02-08T09:42:07.918Z,43.00
2018-02-08T09:43:07.965Z,42.10
2018-02-08T09:44:07.917Z,41.90
2018-02-08T09:45:07.875Z,42.30
2018-02-08T09:46:07.941Z,44.30
2018-02-08T09:47:07.890Z,44.20
2018-02-08T09:48:08.604Z,45.50
2018-02-08T09:49:07.903Z,45.00
2018-02-08T09:50:07.889Z,44.10
2018-02-08T09:51:07.936Z,43.50
2018-02-08T09:52:07.898Z,42.40
2018-02-08T09:53:07.912Z,43.40
2018-02-08T09:54:07.887Z,43.20
2018-02-08T09:55:07.901Z,44.20
2018-02-08T09:56:07.934Z,44.80
2018-02-08T09:57:08.052Z,45.00
2018-02-08T09:58:08.144Z,44.40
2018-02-08T09:59:07.915Z,43.30
2018-02-08T10:00:07.890Z,43.80
2018-02-08T10:01:07.941Z,43.80
2018-02-08T10:02:08.597Z,44.00
2018-02-08T10:03:07.948Z,44.70
2018-02-08T10:04:07.916Z,42.30
2018-02-08T10:05:07.931Z,43.50
2018-02-08T10:06:08.080Z,45.50
2018-02-08T10:07:07.917Z,43.90
2018-02-08T10:08:07.917Z,45.00
2018-02-08T10:09:08.003Z,45.10
2018-02-08T10:10:07.953Z,45.10
2018-02-08T10:11:08.024Z,47.00
2018-02-08T10:12:07.986Z,43.30
2018-02-08T10:13:07.962Z,45.40
2018-02-08T10:14:07.935Z,44.80
2018-02-08T10:15:07.941Z,44.80
2018-02-08T10:16:07.992Z,45.50
2018-02-08T10:17:07.942Z,45.30
2018-02-08T10:18:07.991Z,47.00
2018-02-08T10:19:08.014Z,45.40
2018-02-08T10:20:08.121Z,45.50
2018-02-08T10:21:07.996Z,45.60
2018-02-08T10:22:07.954Z,53.00
2018-02-08T10:23:07.958Z,45.90
2018-02-08T10:24:08.064Z,45.10
2018-02-08T10:25:07.990Z,47.00
2018-02-08T10:26:07.957Z,45.50
2018-02-08T10:27:07.943Z,52.00
2018-02-08T10:28:07.972Z,46.20
2018-02-08T10:29:08.525Z,46.70
2018-02-08T10:30:07.976Z,44.50
2018-02-08T10:31:08.003Z,44.20
2018-02-08T10:32:07.951Z,46.30
2018-02-08T10:33:08.000Z,43.00
2018-02-08T10:34:08.003Z,40.70
2018-02-08T10:35:07.999Z,41.60
2018-02-08T10:36:08.031Z,39.50
2018-02-08T10:37:08.535Z,38.40
2018-02-08T10:38:07.968Z,39.00
2018-02-08T10:39:08.025Z,40.50
2018-02-08T10:40:08.027Z,49.10
2018-02-08T10:41:08.538Z,46.10
2018-02-08T10:42:07.966Z,40.90
2018-02-08T10:43:08.044Z,39.60
2018-02-08T10:44:07.970Z,42.20
2018-02-08T10:45:08.002Z,41.40
2018-02-08T10:46:08.005Z,39.30
2018-02-08T10:47:08.532Z,38.90
2018-02-08T10:48:08.017Z,39.10
2018-02-08T10:49:07.985Z,40.90
2018-02-08T10:50:08.087Z,39.60
2018-02-08T10:51:07.982Z,40.40
2018-02-08T10:52:08.006Z,40.00
2018-02-08T10:53:08.305Z,40.20
2018-02-08T10:54:08.050Z,38.80
2018-02-08T10:55:08.000Z,38.70
2018-02-08T10:56:08.027Z,39.20
2018-02-08T10:57:08.055Z,38.00
2018-02-08T10:58:08.042Z,37.60
2018-02-08T10:59:08.093Z,39.10
2018-02-08T11:00:08.186Z,38.40
2018-02-08T11:01:08.060Z,37.40
2018-02-08T11:02:08.041Z,39.80
2018-02-08T11:03:08.061Z,38.70
2018-02-08T11:04:08.064Z,37.00
2018-02-08T11:05:08.039Z,38.70
2018-02-08T11:06:08.094Z,39.90
2018-02-08T11:07:08.137Z,40.20
2018-02-08T11:08:08.130Z,39.20
2018-02-08T11:09:08.114Z,39.20
2018-02-08T11:10:08.107Z,40.20
2018-02-08T11:11:09.542Z,37.80
2018-02-08T11:12:14.734Z,40.40
2018-02-08T11:13:10.302Z,40.50
2018-02-08T11:14:09.744Z,40.50
2018-02-08T11:15:09.216Z,38.10
2018-02-08T11:16:26.957Z,39.00
2018-02-08T11:17:09.420Z,37.50
2018-02-08T11:18:09.312Z,38.40
2018-02-08T11:19:08.611Z,37.40
2018-02-08T11:20:12.887Z,38.50
2018-02-08T11:21:08.106Z,37.70
2018-02-08T11:22:08.156Z,37.70
2018-02-08T11:23:08.155Z,38.60
2018-02-08T11:24:08.232Z,37.90
2018-02-08T11:25:08.121Z,36.60
2018-02-08T11:26:08.130Z,36.40
2018-02-08T11:27:08.204Z,35.40
2018-02-08T11:28:08.230Z,41.30
2018-02-08T11:29:08.397Z,37.70
2018-02-08T11:30:08.135Z,34.80
2018-02-08T11:31:08.190Z,36.30
2018-02-08T11:32:08.156Z,36.10
2018-02-08T11:33:08.209Z,37.40
2018-02-08T11:34:08.222Z,36.90
2018-02-08T11:35:08.284Z,36.80
2018-02-08T11:36:08.203Z,36.10
2018-02-08T11:37:08.234Z,34.80
2018-02-08T11:38:08.213Z,35.50
2018-02-08T11:39:08.195Z,35.20
2018-02-08T11:40:08.195Z,35.40
2018-02-08T11:41:08.243Z,35.70
2018-02-08T11:42:08.222Z,37.60
2018-02-08T11:43:08.285Z,36.40
2018-02-08T11:44:08.256Z,34.70
2018-02-08T11:45:08.264Z,36.10
2018-02-08T11:46:08.259Z,35.50
2018-02-08T11:47:08.269Z,36.10
2018-02-08T11:48:08.260Z,37.60
2018-02-08T11:49:08.268Z,34.90
2018-02-08T11:50:08.275Z,35.70
2018-02-08T11:51:08.327Z,34.70
2018-02-08T11:52:08.292Z,36.90
2018-02-08T11:53:08.261Z,36.80
2018-02-08T11:54:08.301Z,38.00
2018-02-08T11:55:08.318Z,36.40
2018-02-08T11:56:08.354Z,37.00
2018-02-08T11:57:08.365Z,36.30
2018-02-08T11:58:08.309Z,35.00
2018-02-08T11:59:08.444Z,36.00
2018-02-08T12:00:08.317Z,36.20
2018-02-08T12:01:08.344Z,35.80
2018-02-08T12:02:08.362Z,34.70
2018-02-08T12:03:08.344Z,36.70
2018-02-08T12:04:08.413Z,37.30
2018-02-08T12:05:08.356Z,35.40
2018-02-08T12:06:08.364Z,36.00
2018-02-08T12:07:08.349Z,34.70
2018-02-08T12:08:08.346Z,34.70
2018-02-08T12:09:08.434Z,34.70
2018-02-08T12:10:08.356Z,35.50
2018-02-08T12:11:08.361Z,36.20
2018-02-08T12:12:08.423Z,36.10
2018-02-08T12:13:08.417Z,34.70
2018-02-08T12:14:08.405Z,34.10
2018-02-08T12:15:08.397Z,33.70
2018-02-08T12:16:08.428Z,35.80
2018-02-08T12:17:08.401Z,34.70
2018-02-08T12:18:08.421Z,34.90
2018-02-08T12:19:09.073Z,36.90
2018-02-08T12:20:08.423Z,35.70
2018-02-08T12:21:08.441Z,35.40
2018-02-08T12:22:08.484Z,33.20
2018-02-08T12:23:08.416Z,34.30
2018-02-08T12:24:08.490Z,34.80
2018-02-08T12:25:08.467Z,35.50
2018-02-08T12:26:08.474Z,33.80
2018-02-08T12:27:08.437Z,35.40
2018-02-08T12:28:08.452Z,36.90
2018-02-08T12:29:08.464Z,37.30
2018-02-08T12:30:08.442Z,37.10
2018-02-08T12:31:09.005Z,37.50
2018-02-08T12:32:09.077Z,36.90
2018-02-08T12:33:08.527Z,38.90
2018-02-08T12:34:08.452Z,38.10
2018-02-08T12:35:08.500Z,37.60
2018-02-08T12:36:08.588Z,38.10
2018-02-08T12:37:08.494Z,37.90
2018-02-08T12:38:08.481Z,37.80
2018-02-08T12:39:08.496Z,42.30
2018-02-08T12:40:08.465Z,39.70
2018-02-08T12:41:08.471Z,37.80
2018-02-08T12:42:08.544Z,37.30
2018-02-08T12:43:08.475Z,37.30
2018-02-08T12:44:08.474Z,38.00
2018-02-08T12:45:09.085Z,38.70
2018-02-08T12:46:08.474Z,37.40
2018-02-08T12:47:08.500Z,40.00
2018-02-08T12:48:09.082Z,38.10
2018-02-08T12:49:08.536Z,37.30
2018-02-08T12:50:08.551Z,44.70
2018-02-08T12:51:08.515Z,40.80
2018-02-08T12:52:08.534Z,39.70
2018-02-08T12:53:08.511Z,39.40